sensor_id;sensor_type;location;lat;lon;timestamp;P1;durP1;ratioP1;P2;durP2;ratioP2
583;SDS011;27024;54.068;12.116;2024-01-30T00:01:09;6.88;;;3.63;;
583;SDS011;27024;54.068;12.116;2024-01-30T00:03:36;6.90;;;4.18;;
583;SDS011;27024;54.068;12.116;2024-01-30T00:06:03;8.02;;;3.92;;
583;SDS011;27024;54.068;12.116;2024-01-30T00:08:30;7.32;;;3.70;;
583;SDS011;27024;54.068;12.116;2024-01-30T00:10:57;7.15;;;3.05;;
583;SDS011;27024;54.068;12.116;2024-01-30T00:13:24;6.95;;;3.53;;
583;SDS011;27024;54.068;12.116;2024-01-30T00:15:51;6.97;;;3.45;;
583;SDS011;27024;54.068;12.116;2024-01-30T00:18:18;6.15;;;3.20;;
583;SDS011;27024;54.068;12.116;2024-01-30T00:20:45;6.45;;;3.28;;
583;SDS011;27024;54.068;12.116;2024-01-30T00:23:12;6.47;;;3.17;;
583;SDS011;27024;54.068;12.116;2024-01-30T00:25:39;6.57;;;2.90;;
583;SDS011;27024;54.068;12.116;2024-01-30T00:28:06;6.55;;;3.20;;
583;SDS011;27024;54.068;12.116;2024-01-30T00:30:33;7.30;;;3.50;;
583;SDS011;27024;54.068;12.116;2024-01-30T00:33:00;7.38;;;3.47;;
583;SDS011;27024;54.068;12.116;2024-01-30T00:35:27;7.63;;;3.50;;
583;SDS011;27024;54.068;12.116;2024-01-30T00:37:56;6.70;;;3.70;;
583;SDS011;27024;54.068;12.116;2024-01-30T00:40:24;7.47;;;4.10;;
583;SDS011;27024;54.068;12.116;2024-01-30T00:42:51;8.25;;;3.38;;
583;SDS011;27024;54.068;12.116;2024-01-30T00:45:18;6.03;;;3.22;;
583;SDS011;27024;54.068;12.116;2024-01-30T00:47:45;8.95;;;3.50;;
583;SDS011;27024;54.068;12.116;2024-01-30T00:50:12;6.85;;;3.45;;
583;SDS011;27024;54.068;12.116;2024-01-30T00:52:40;8.50;;;4.35;;
583;SDS011;27024;54.068;12.116;2024-01-30T00:55:08;7.00;;;3.33;;
583;SDS011;27024;54.068;12.116;2024-01-30T00:57:35;5.82;;;3.10;;
583;SDS011;27024;54.068;12.116;2024-01-30T01:00:02;6.55;;;3.28;;
583;SDS011;27024;54.068;12.116;2024-01-30T01:02:30;6.45;;;3.40;;
583;SDS011;27024;54.068;12.116;2024-01-30T01:04:57;7.15;;;3.38;;
583;SDS011;27024;54.068;12.116;2024-01-30T01:07:24;6.70;;;3.20;;
583;SDS011;27024;54.068;12.116;2024-01-30T01:09:51;6.72;;;3.45;;
583;SDS011;27024;54.068;12.116;2024-01-30T01:12:18;7.70;;;3.17;;
583;SDS011;27024;54.068;12.116;2024-01-30T01:14:45;7.15;;;3.50;;
583;SDS011;27024;54.068;12.116;2024-01-30T01:17:13;8.20;;;3.38;;
583;SDS011;27024;54.068;12.116;2024-01-30T01:19:40;8.02;;;3.35;;
583;SDS011;27024;54.068;12.116;2024-01-30T01:22:07;6.78;;;3.05;;
583;SDS011;27024;54.068;12.116;2024-01-30T01:24:35;7.43;;;3.83;;
583;SDS011;27024;54.068;12.116;2024-01-30T01:27:02;7.18;;;3.50;;
583;SDS011;27024;54.068;12.116;2024-01-30T01:29:29;8.00;;;3.90;;
583;SDS011;27024;54.068;12.116;2024-01-30T01:31:57;7.25;;;3.78;;
583;SDS011;27024;54.068;12.116;2024-01-30T01:34:24;7.53;;;3.65;;
583;SDS011;27024;54.068;12.116;2024-01-30T01:36:56;7.43;;;3.55;;
583;SDS011;27024;54.068;12.116;2024-01-30T01:39:23;8.05;;;3.58;;
583;SDS011;27024;54.068;12.116;2024-01-30T01:41:50;7.93;;;3.72;;
583;SDS011;27024;54.068;12.116;2024-01-30T01:44:18;7.32;;;3.80;;
583;SDS011;27024;54.068;12.116;2024-01-30T01:46:45;9.32;;;4.10;;
583;SDS011;27024;54.068;12.116;2024-01-30T01:49:12;6.03;;;3.67;;
583;SDS011;27024;54.068;12.116;2024-01-30T01:51:41;6.57;;;3.53;;
583;SDS011;27024;54.068;12.116;2024-01-30T01:54:12;8.02;;;3.95;;
583;SDS011;27024;54.068;12.116;2024-01-30T01:56:42;6.90;;;3.67;;
583;SDS011;27024;54.068;12.116;2024-01-30T01:59:10;9.73;;;3.60;;
583;SDS011;27024;54.068;12.116;2024-01-30T02:01:37;8.82;;;3.97;;
583;SDS011;27024;54.068;12.116;2024-01-30T02:04:04;9.07;;;4.25;;
583;SDS011;27024;54.068;12.116;2024-01-30T02:06:32;6.82;;;3.78;;
583;SDS011;27024;54.068;12.116;2024-01-30T02:09:00;8.25;;;3.70;;
583;SDS011;27024;54.068;12.116;2024-01-30T02:11:27;10.10;;;3.80;;
583;SDS011;27024;54.068;12.116;2024-01-30T02:13:54;7.20;;;4.15;;
583;SDS011;27024;54.068;12.116;2024-01-30T02:16:22;8.32;;;3.95;;
583;SDS011;27024;54.068;12.116;2024-01-30T02:18:49;7.18;;;3.65;;
583;SDS011;27024;54.068;12.116;2024-01-30T02:21:16;8.18;;;4.20;;
583;SDS011;27024;54.068;12.116;2024-01-30T02:23:44;8.38;;;4.13;;
583;SDS011;27024;54.068;12.116;2024-01-30T02:26:13;9.18;;;4.20;;
583;SDS011;27024;54.068;12.116;2024-01-30T02:28:40;9.20;;;5.03;;
583;SDS011;27024;54.068;12.116;2024-01-30T02:31:07;8.38;;;4.13;;
583;SDS011;27024;54.068;12.116;2024-01-30T02:33:34;8.82;;;4.38;;
583;SDS011;27024;54.068;12.116;2024-01-30T02:36:01;7.45;;;4.00;;
583;SDS011;27024;54.068;12.116;2024-01-30T02:38:28;8.07;;;4.22;;
583;SDS011;27024;54.068;12.116;2024-01-30T02:40:55;8.90;;;4.43;;
583;SDS011;27024;54.068;12.116;2024-01-30T02:43:25;9.15;;;4.45;;
583;SDS011;27024;54.068;12.116;2024-01-30T02:45:52;8.30;;;4.10;;
583;SDS011;27024;54.068;12.116;2024-01-30T02:48:19;7.95;;;3.65;;
583;SDS011;27024;54.068;12.116;2024-01-30T02:50:46;11.70;;;4.70;;
583;SDS011;27024;54.068;12.116;2024-01-30T02:53:13;7.97;;;3.72;;
583;SDS011;27024;54.068;12.116;2024-01-30T02:55:40;9.20;;;4.63;;
583;SDS011;27024;54.068;12.116;2024-01-30T02:58:07;9.63;;;4.82;;
583;SDS011;27024;54.068;12.116;2024-01-30T03:00:34;8.48;;;4.47;;
583;SDS011;27024;54.068;12.116;2024-01-30T03:03:01;7.80;;;4.25;;
583;SDS011;27024;54.068;12.116;2024-01-30T03:05:28;8.65;;;4.30;;
583;SDS011;27024;54.068;12.116;2024-01-30T03:07:55;6.82;;;3.67;;
583;SDS011;27024;54.068;12.116;2024-01-30T03:10:22;8.90;;;3.88;;
583;SDS011;27024;54.068;12.116;2024-01-30T03:12:49;7.00;;;4.20;;
583;SDS011;27024;54.068;12.116;2024-01-30T03:15:16;8.23;;;4.10;;
583;SDS011;27024;54.068;12.116;2024-01-30T03:17:43;8.70;;;4.35;;
583;SDS011;27024;54.068;12.116;2024-01-30T03:20:10;8.88;;;4.20;;
583;SDS011;27024;54.068;12.116;2024-01-30T03:22:37;9.10;;;4.53;;
583;SDS011;27024;54.068;12.116;2024-01-30T03:25:05;8.05;;;3.95;;
583;SDS011;27024;54.068;12.116;2024-01-30T03:27:33;10.20;;;4.47;;
583;SDS011;27024;54.068;12.116;2024-01-30T03:29:59;8.57;;;4.22;;
583;SDS011;27024;54.068;12.116;2024-01-30T03:32:27;8.90;;;4.07;;
583;SDS011;27024;54.068;12.116;2024-01-30T03:34:54;10.23;;;4.50;;
583;SDS011;27024;54.068;12.116;2024-01-30T03:37:21;8.07;;;4.10;;
583;SDS011;27024;54.068;12.116;2024-01-30T03:39:48;9.43;;;4.15;;
583;SDS011;27024;54.068;12.116;2024-01-30T03:42:15;7.63;;;4.20;;
583;SDS011;27024;54.068;12.116;2024-01-30T03:44:42;7.13;;;4.43;;
583;SDS011;27024;54.068;12.116;2024-01-30T03:47:09;8.45;;;4.47;;
583;SDS011;27024;54.068;12.116;2024-01-30T03:49:36;9.25;;;4.10;;
583;SDS011;27024;54.068;12.116;2024-01-30T03:52:03;7.78;;;3.72;;
583;SDS011;27024;54.068;12.116;2024-01-30T03:54:30;8.63;;;4.03;;
583;SDS011;27024;54.068;12.116;2024-01-30T03:56:57;8.50;;;5.07;;
583;SDS011;27024;54.068;12.116;2024-01-30T03:59:24;8.50;;;4.53;;
583;SDS011;27024;54.068;12.116;2024-01-30T04:01:51;8.40;;;4.15;;
583;SDS011;27024;54.068;12.116;2024-01-30T04:04:18;9.15;;;4.82;;
583;SDS011;27024;54.068;12.116;2024-01-30T04:06:46;10.10;;;4.60;;
583;SDS011;27024;54.068;12.116;2024-01-30T04:09:13;9.80;;;4.65;;
583;SDS011;27024;54.068;12.116;2024-01-30T04:11:41;10.05;;;4.90;;
583;SDS011;27024;54.068;12.116;2024-01-30T04:14:08;9.63;;;5.38;;
583;SDS011;27024;54.068;12.116;2024-01-30T04:16:36;8.18;;;4.55;;
583;SDS011;27024;54.068;12.116;2024-01-30T04:19:03;9.07;;;4.88;;
583;SDS011;27024;54.068;12.116;2024-01-30T04:21:30;8.30;;;4.82;;
583;SDS011;27024;54.068;12.116;2024-01-30T04:23:57;8.50;;;4.45;;
583;SDS011;27024;54.068;12.116;2024-01-30T04:26:24;9.35;;;4.72;;
583;SDS011;27024;54.068;12.116;2024-01-30T04:28:51;8.23;;;4.90;;
583;SDS011;27024;54.068;12.116;2024-01-30T04:31:18;9.65;;;4.78;;
583;SDS011;27024;54.068;12.116;2024-01-30T04:33:46;8.63;;;4.53;;
583;SDS011;27024;54.068;12.116;2024-01-30T04:36:13;10.00;;;5.85;;
583;SDS011;27024;54.068;12.116;2024-01-30T04:38:40;8.50;;;4.57;;
583;SDS011;27024;54.068;12.116;2024-01-30T04:41:07;9.95;;;4.50;;
583;SDS011;27024;54.068;12.116;2024-01-30T04:43:34;7.50;;;4.65;;
583;SDS011;27024;54.068;12.116;2024-01-30T04:46:01;7.70;;;4.80;;
583;SDS011;27024;54.068;12.116;2024-01-30T04:48:28;10.65;;;5.55;;
583;SDS011;27024;54.068;12.116;2024-01-30T04:50:56;9.43;;;4.63;;
583;SDS011;27024;54.068;12.116;2024-01-30T04:53:23;9.13;;;4.95;;
583;SDS011;27024;54.068;12.116;2024-01-30T04:55:50;9.00;;;5.07;;
583;SDS011;27024;54.068;12.116;2024-01-30T04:58:17;8.80;;;4.35;;
583;SDS011;27024;54.068;12.116;2024-01-30T05:00:44;8.18;;;4.78;;
583;SDS011;27024;54.068;12.116;2024-01-30T05:03:12;9.43;;;5.10;;
583;SDS011;27024;54.068;12.116;2024-01-30T05:05:39;9.50;;;5.65;;
583;SDS011;27024;54.068;12.116;2024-01-30T05:08:07;9.02;;;5.40;;
583;SDS011;27024;54.068;12.116;2024-01-30T05:10:34;10.32;;;4.70;;
583;SDS011;27024;54.068;12.116;2024-01-30T05:13:01;7.60;;;4.82;;
583;SDS011;27024;54.068;12.116;2024-01-30T05:15:28;8.85;;;4.68;;
583;SDS011;27024;54.068;12.116;2024-01-30T05:17:55;11.05;;;5.05;;
583;SDS011;27024;54.068;12.116;2024-01-30T05:20:22;10.10;;;4.95;;
583;SDS011;27024;54.068;12.116;2024-01-30T05:22:49;9.73;;;4.70;;
583;SDS011;27024;54.068;12.116;2024-01-30T05:25:16;9.40;;;5.13;;
583;SDS011;27024;54.068;12.116;2024-01-30T05:27:43;11.98;;;5.25;;
583;SDS011;27024;54.068;12.116;2024-01-30T05:30:10;9.10;;;5.15;;
583;SDS011;27024;54.068;12.116;2024-01-30T05:32:38;10.48;;;5.22;;
583;SDS011;27024;54.068;12.116;2024-01-30T05:35:05;10.40;;;4.97;;
583;SDS011;27024;54.068;12.116;2024-01-30T05:37:34;10.43;;;5.18;;
583;SDS011;27024;54.068;12.116;2024-01-30T05:40:01;9.82;;;5.25;;
583;SDS011;27024;54.068;12.116;2024-01-30T05:42:28;11.55;;;6.00;;
583;SDS011;27024;54.068;12.116;2024-01-30T05:44:55;11.35;;;5.38;;
583;SDS011;27024;54.068;12.116;2024-01-30T05:47:22;12.60;;;5.85;;
583;SDS011;27024;54.068;12.116;2024-01-30T05:49:49;11.48;;;6.60;;
583;SDS011;27024;54.068;12.116;2024-01-30T05:52:16;11.02;;;5.57;;
583;SDS011;27024;54.068;12.116;2024-01-30T05:54:45;10.80;;;5.55;;
583;SDS011;27024;54.068;12.116;2024-01-30T05:57:12;10.02;;;5.75;;
583;SDS011;27024;54.068;12.116;2024-01-30T05:59:39;10.02;;;5.05;;
583;SDS011;27024;54.068;12.116;2024-01-30T06:02:07;8.05;;;4.68;;
583;SDS011;27024;54.068;12.116;2024-01-30T06:04:34;10.13;;;5.13;;
583;SDS011;27024;54.068;12.116;2024-01-30T06:07:02;8.95;;;5.55;;
583;SDS011;27024;54.068;12.116;2024-01-30T06:09:29;10.80;;;5.53;;
583;SDS011;27024;54.068;12.116;2024-01-30T06:11:56;9.32;;;5.13;;
583;SDS011;27024;54.068;12.116;2024-01-30T06:14:23;11.82;;;5.65;;
583;SDS011;27024;54.068;12.116;2024-01-30T06:16:50;9.05;;;5.13;;
583;SDS011;27024;54.068;12.116;2024-01-30T06:19:17;10.27;;;5.03;;
583;SDS011;27024;54.068;12.116;2024-01-30T06:21:44;12.52;;;5.70;;
583;SDS011;27024;54.068;12.116;2024-01-30T06:24:12;10.63;;;5.93;;
583;SDS011;27024;54.068;12.116;2024-01-30T06:26:39;8.88;;;5.68;;
583;SDS011;27024;54.068;12.116;2024-01-30T06:29:06;10.77;;;5.60;;
583;SDS011;27024;54.068;12.116;2024-01-30T06:31:39;13.43;;;5.32;;
583;SDS011;27024;54.068;12.116;2024-01-30T06:34:07;10.05;;;5.60;;
583;SDS011;27024;54.068;12.116;2024-01-30T06:36:35;10.63;;;5.55;;
583;SDS011;27024;54.068;12.116;2024-01-30T06:39:02;10.48;;;5.63;;
583;SDS011;27024;54.068;12.116;2024-01-30T06:41:30;11.82;;;5.40;;
583;SDS011;27024;54.068;12.116;2024-01-30T06:43:57;9.30;;;4.90;;
583;SDS011;27024;54.068;12.116;2024-01-30T06:46:24;9.70;;;5.25;;
583;SDS011;27024;54.068;12.116;2024-01-30T06:48:51;9.93;;;5.72;;
583;SDS011;27024;54.068;12.116;2024-01-30T06:51:18;10.95;;;5.68;;
583;SDS011;27024;54.068;12.116;2024-01-30T06:53:45;8.20;;;4.80;;
583;SDS011;27024;54.068;12.116;2024-01-30T06:56:12;11.20;;;5.40;;
583;SDS011;27024;54.068;12.116;2024-01-30T06:58:39;11.05;;;5.60;;
583;SDS011;27024;54.068;12.116;2024-01-30T07:01:06;11.10;;;5.63;;
583;SDS011;27024;54.068;12.116;2024-01-30T07:03:33;14.10;;;6.13;;
583;SDS011;27024;54.068;12.116;2024-01-30T07:06:00;12.13;;;5.75;;
583;SDS011;27024;54.068;12.116;2024-01-30T07:08:28;10.63;;;5.55;;
583;SDS011;27024;54.068;12.116;2024-01-30T07:10:55;11.13;;;5.95;;
583;SDS011;27024;54.068;12.116;2024-01-30T07:13:27;9.80;;;5.75;;
583;SDS011;27024;54.068;12.116;2024-01-30T07:15:55;11.90;;;6.28;;
583;SDS011;27024;54.068;12.116;2024-01-30T07:18:22;11.77;;;6.10;;
583;SDS011;27024;54.068;12.116;2024-01-30T07:20:49;14.23;;;7.25;;
583;SDS011;27024;54.068;12.116;2024-01-30T07:23:16;11.48;;;7.00;;
583;SDS011;27024;54.068;12.116;2024-01-30T07:25:44;13.30;;;7.72;;
583;SDS011;27024;54.068;12.116;2024-01-30T07:28:14;11.52;;;6.20;;
583;SDS011;27024;54.068;12.116;2024-01-30T07:30:45;12.23;;;5.97;;
583;SDS011;27024;54.068;12.116;2024-01-30T07:33:12;10.73;;;6.03;;
583;SDS011;27024;54.068;12.116;2024-01-30T07:35:40;14.00;;;5.90;;
583;SDS011;27024;54.068;12.116;2024-01-30T07:38:07;11.68;;;6.20;;
583;SDS011;27024;54.068;12.116;2024-01-30T07:40:34;10.35;;;6.03;;
583;SDS011;27024;54.068;12.116;2024-01-30T07:43:01;12.73;;;6.20;;
583;SDS011;27024;54.068;12.116;2024-01-30T07:45:30;11.80;;;6.15;;
583;SDS011;27024;54.068;12.116;2024-01-30T07:48:00;11.88;;;6.43;;
583;SDS011;27024;54.068;12.116;2024-01-30T07:50:27;10.93;;;6.40;;
583;SDS011;27024;54.068;12.116;2024-01-30T07:52:59;10.82;;;6.55;;
583;SDS011;27024;54.068;12.116;2024-01-30T07:55:26;12.93;;;6.57;;
583;SDS011;27024;54.068;12.116;2024-01-30T07:57:55;10.73;;;6.28;;
583;SDS011;27024;54.068;12.116;2024-01-30T08:00:23;12.27;;;5.95;;
583;SDS011;27024;54.068;12.116;2024-01-30T08:02:53;11.55;;;5.90;;
583;SDS011;27024;54.068;12.116;2024-01-30T08:05:23;11.68;;;5.97;;
583;SDS011;27024;54.068;12.116;2024-01-30T08:07:51;12.30;;;6.25;;
583;SDS011;27024;54.068;12.116;2024-01-30T08:10:18;12.43;;;5.95;;
583;SDS011;27024;54.068;12.116;2024-01-30T08:12:46;11.55;;;6.15;;
583;SDS011;27024;54.068;12.116;2024-01-30T08:15:13;13.20;;;6.53;;
583;SDS011;27024;54.068;12.116;2024-01-30T08:17:40;11.40;;;6.38;;
583;SDS011;27024;54.068;12.116;2024-01-30T08:20:07;12.32;;;6.13;;
583;SDS011;27024;54.068;12.116;2024-01-30T08:22:38;13.40;;;6.55;;
583;SDS011;27024;54.068;12.116;2024-01-30T08:25:07;12.15;;;7.28;;
583;SDS011;27024;54.068;12.116;2024-01-30T08:27:35;13.25;;;6.40;;
583;SDS011;27024;54.068;12.116;2024-01-30T08:30:08;11.68;;;6.57;;
583;SDS011;27024;54.068;12.116;2024-01-30T08:32:35;13.68;;;6.78;;
583;SDS011;27024;54.068;12.116;2024-01-30T08:35:03;12.68;;;6.60;;
583;SDS011;27024;54.068;12.116;2024-01-30T08:37:31;13.43;;;6.35;;
583;SDS011;27024;54.068;12.116;2024-01-30T08:39:58;12.85;;;6.55;;
583;SDS011;27024;54.068;12.116;2024-01-30T08:42:25;11.30;;;6.85;;
583;SDS011;27024;54.068;12.116;2024-01-30T08:44:52;10.70;;;6.22;;
583;SDS011;27024;54.068;12.116;2024-01-30T08:47:20;13.25;;;7.13;;
583;SDS011;27024;54.068;12.116;2024-01-30T08:49:47;11.65;;;6.38;;
583;SDS011;27024;54.068;12.116;2024-01-30T08:52:14;14.45;;;6.45;;
583;SDS011;27024;54.068;12.116;2024-01-30T08:54:41;14.02;;;6.45;;
583;SDS011;27024;54.068;12.116;2024-01-30T08:57:08;12.60;;;7.03;;
583;SDS011;27024;54.068;12.116;2024-01-30T08:59:35;11.93;;;6.88;;
583;SDS011;27024;54.068;12.116;2024-01-30T09:02:02;11.23;;;6.60;;
583;SDS011;27024;54.068;12.116;2024-01-30T09:04:38;12.45;;;6.93;;
583;SDS011;27024;54.068;12.116;2024-01-30T09:07:06;11.25;;;6.55;;
583;SDS011;27024;54.068;12.116;2024-01-30T09:09:37;15.30;;;8.65;;
583;SDS011;27024;54.068;12.116;2024-01-30T09:12:07;11.15;;;5.53;;
583;SDS011;27024;54.068;12.116;2024-01-30T09:14:36;13.05;;;6.22;;
583;SDS011;27024;54.068;12.116;2024-01-30T09:17:04;14.60;;;7.18;;
583;SDS011;27024;54.068;12.116;2024-01-30T09:19:31;12.63;;;6.53;;
583;SDS011;27024;54.068;12.116;2024-01-30T09:21:59;10.30;;;6.40;;
583;SDS011;27024;54.068;12.116;2024-01-30T09:24:26;13.75;;;6.70;;
583;SDS011;27024;54.068;12.116;2024-01-30T09:26:54;11.25;;;6.72;;
583;SDS011;27024;54.068;12.116;2024-01-30T09:29:21;11.48;;;7.22;;
583;SDS011;27024;54.068;12.116;2024-01-30T09:31:48;13.75;;;7.38;;
583;SDS011;27024;54.068;12.116;2024-01-30T09:34:15;11.98;;;6.72;;
583;SDS011;27024;54.068;12.116;2024-01-30T09:36:43;11.85;;;6.70;;
583;SDS011;27024;54.068;12.116;2024-01-30T09:39:10;14.80;;;6.93;;
583;SDS011;27024;54.068;12.116;2024-01-30T09:41:41;12.35;;;7.35;;
583;SDS011;27024;54.068;12.116;2024-01-30T09:44:18;11.70;;;6.70;;
583;SDS011;27024;54.068;12.116;2024-01-30T09:46:47;13.30;;;7.20;;
583;SDS011;27024;54.068;12.116;2024-01-30T09:49:16;14.05;;;6.70;;
583;SDS011;27024;54.068;12.116;2024-01-30T09:51:47;12.88;;;7.93;;
583;SDS011;27024;54.068;12.116;2024-01-30T09:54:15;11.13;;;7.18;;
583;SDS011;27024;54.068;12.116;2024-01-30T09:56:42;14.02;;;7.57;;
583;SDS011;27024;54.068;12.116;2024-01-30T09:59:09;11.73;;;6.70;;
583;SDS011;27024;54.068;12.116;2024-01-30T10:01:36;13.25;;;7.20;;
583;SDS011;27024;54.068;12.116;2024-01-30T10:04:04;12.30;;;7.10;;
583;SDS011;27024;54.068;12.116;2024-01-30T10:06:32;10.55;;;6.57;;
583;SDS011;27024;54.068;12.116;2024-01-30T10:09:01;13.93;;;7.63;;
583;SDS011;27024;54.068;12.116;2024-01-30T10:11:27;10.60;;;6.70;;
583;SDS011;27024;54.068;12.116;2024-01-30T10:13:54;13.77;;;7.43;;
583;SDS011;27024;54.068;12.116;2024-01-30T10:16:22;13.25;;;7.28;;
583;SDS011;27024;54.068;12.116;2024-01-30T10:18:48;12.93;;;6.88;;
583;SDS011;27024;54.068;12.116;2024-01-30T10:21:16;14.77;;;8.43;;
583;SDS011;27024;54.068;12.116;2024-01-30T10:23:43;15.20;;;8.10;;
583;SDS011;27024;54.068;12.116;2024-01-30T10:26:15;12.07;;;6.50;;
583;SDS011;27024;54.068;12.116;2024-01-30T10:28:44;15.07;;;7.70;;
583;SDS011;27024;54.068;12.116;2024-01-30T10:31:15;12.27;;;6.97;;
583;SDS011;27024;54.068;12.116;2024-01-30T10:33:43;13.63;;;7.05;;
583;SDS011;27024;54.068;12.116;2024-01-30T10:36:12;13.02;;;7.70;;
583;SDS011;27024;54.068;12.116;2024-01-30T10:38:46;12.23;;;7.22;;
583;SDS011;27024;54.068;12.116;2024-01-30T10:41:16;12.95;;;7.63;;
583;SDS011;27024;54.068;12.116;2024-01-30T10:43:54;13.45;;;8.05;;
583;SDS011;27024;54.068;12.116;2024-01-30T10:46:30;13.30;;;7.50;;
583;SDS011;27024;54.068;12.116;2024-01-30T10:48:58;13.13;;;7.57;;
583;SDS011;27024;54.068;12.116;2024-01-30T10:51:27;13.98;;;8.02;;
583;SDS011;27024;54.068;12.116;2024-01-30T10:53:55;13.35;;;7.10;;
583;SDS011;27024;54.068;12.116;2024-01-30T10:56:25;12.30;;;7.38;;
583;SDS011;27024;54.068;12.116;2024-01-30T10:58:52;13.45;;;7.20;;
583;SDS011;27024;54.068;12.116;2024-01-30T11:01:22;13.50;;;7.72;;
583;SDS011;27024;54.068;12.116;2024-01-30T11:03:53;13.98;;;7.80;;
583;SDS011;27024;54.068;12.116;2024-01-30T11:06:24;11.40;;;6.88;;
583;SDS011;27024;54.068;12.116;2024-01-30T11:09:05;14.15;;;7.90;;
583;SDS011;27024;54.068;12.116;2024-01-30T11:11:58;14.55;;;7.18;;
583;SDS011;27024;54.068;12.116;2024-01-30T11:14:29;11.40;;;6.85;;
583;SDS011;27024;54.068;12.116;2024-01-30T11:16:57;12.85;;;7.50;;
583;SDS011;27024;54.068;12.116;2024-01-30T11:19:25;12.48;;;7.10;;
583;SDS011;27024;54.068;12.116;2024-01-30T11:21:54;14.90;;;8.18;;
583;SDS011;27024;54.068;12.116;2024-01-30T11:24:24;14.88;;;7.20;;
583;SDS011;27024;54.068;12.116;2024-01-30T11:26:58;17.20;;;8.43;;
583;SDS011;27024;54.068;12.116;2024-01-30T11:29:29;12.82;;;8.32;;
583;SDS011;27024;54.068;12.116;2024-01-30T11:32:00;12.10;;;7.43;;
583;SDS011;27024;54.068;12.116;2024-01-30T11:34:27;12.48;;;7.53;;
583;SDS011;27024;54.068;12.116;2024-01-30T11:37:03;14.20;;;7.80;;
583;SDS011;27024;54.068;12.116;2024-01-30T11:39:36;12.55;;;7.63;;
583;SDS011;27024;54.068;12.116;2024-01-30T11:42:03;12.50;;;7.85;;
583;SDS011;27024;54.068;12.116;2024-01-30T11:44:32;14.88;;;8.23;;
583;SDS011;27024;54.068;12.116;2024-01-30T11:46:59;14.32;;;8.05;;
583;SDS011;27024;54.068;12.116;2024-01-30T11:49:26;13.80;;;7.97;;
583;SDS011;27024;54.068;12.116;2024-01-30T11:51:53;13.38;;;6.85;;
583;SDS011;27024;54.068;12.116;2024-01-30T11:54:20;14.55;;;7.80;;
583;SDS011;27024;54.068;12.116;2024-01-30T11:56:48;13.60;;;7.47;;
583;SDS011;27024;54.068;12.116;2024-01-30T11:59:15;13.38;;;7.68;;
583;SDS011;27024;54.068;12.116;2024-01-30T12:01:42;16.67;;;8.23;;
583;SDS011;27024;54.068;12.116;2024-01-30T12:04:09;13.65;;;7.05;;
583;SDS011;27024;54.068;12.116;2024-01-30T12:06:37;13.05;;;7.53;;
583;SDS011;27024;54.068;12.116;2024-01-30T12:09:05;12.40;;;7.75;;
583;SDS011;27024;54.068;12.116;2024-01-30T12:11:45;13.38;;;7.43;;
583;SDS011;27024;54.068;12.116;2024-01-30T12:14:13;14.15;;;8.30;;
583;SDS011;27024;54.068;12.116;2024-01-30T12:16:41;14.40;;;8.00;;
583;SDS011;27024;54.068;12.116;2024-01-30T12:19:09;16.58;;;7.63;;
583;SDS011;27024;54.068;12.116;2024-01-30T12:21:37;14.35;;;7.43;;
583;SDS011;27024;54.068;12.116;2024-01-30T12:24:05;14.80;;;8.23;;
583;SDS011;27024;54.068;12.116;2024-01-30T12:26:34;14.65;;;8.23;;
583;SDS011;27024;54.068;12.116;2024-01-30T12:29:03;13.18;;;7.65;;
583;SDS011;27024;54.068;12.116;2024-01-30T12:31:31;13.63;;;7.75;;
583;SDS011;27024;54.068;12.116;2024-01-30T12:33:59;11.77;;;7.18;;
583;SDS011;27024;54.068;12.116;2024-01-30T12:36:28;12.77;;;7.75;;
583;SDS011;27024;54.068;12.116;2024-01-30T12:38:57;14.02;;;7.82;;
583;SDS011;27024;54.068;12.116;2024-01-30T12:41:25;16.63;;;8.52;;
583;SDS011;27024;54.068;12.116;2024-01-30T12:43:58;12.73;;;6.95;;
583;SDS011;27024;54.068;12.116;2024-01-30T12:46:29;13.73;;;7.78;;
583;SDS011;27024;54.068;12.116;2024-01-30T12:48:56;15.48;;;8.30;;
583;SDS011;27024;54.068;12.116;2024-01-30T12:51:24;13.20;;;7.80;;
583;SDS011;27024;54.068;12.116;2024-01-30T12:53:51;13.15;;;7.35;;
583;SDS011;27024;54.068;12.116;2024-01-30T12:56:18;15.98;;;7.90;;
583;SDS011;27024;54.068;12.116;2024-01-30T12:58:45;16.15;;;7.60;;
583;SDS011;27024;54.068;12.116;2024-01-30T13:03:44;16.15;;;8.30;;
583;SDS011;27024;54.068;12.116;2024-01-30T13:06:11;12.20;;;6.90;;
583;SDS011;27024;54.068;12.116;2024-01-30T13:08:39;12.40;;;7.85;;
583;SDS011;27024;54.068;12.116;2024-01-30T13:11:06;12.57;;;7.65;;
583;SDS011;27024;54.068;12.116;2024-01-30T13:13:43;13.23;;;7.60;;
583;SDS011;27024;54.068;12.116;2024-01-30T13:16:11;13.52;;;8.73;;
583;SDS011;27024;54.068;12.116;2024-01-30T13:18:38;12.93;;;8.25;;
583;SDS011;27024;54.068;12.116;2024-01-30T13:21:05;14.68;;;8.90;;
583;SDS011;27024;54.068;12.116;2024-01-30T13:23:32;12.77;;;8.65;;
583;SDS011;27024;54.068;12.116;2024-01-30T13:25:59;14.90;;;7.95;;
583;SDS011;27024;54.068;12.116;2024-01-30T13:28:26;13.05;;;7.20;;
583;SDS011;27024;54.068;12.116;2024-01-30T13:30:53;13.48;;;7.70;;
583;SDS011;27024;54.068;12.116;2024-01-30T13:33:20;16.08;;;7.88;;
583;SDS011;27024;54.068;12.116;2024-01-30T13:35:47;14.40;;;7.88;;
583;SDS011;27024;54.068;12.116;2024-01-30T13:38:15;12.88;;;7.07;;
583;SDS011;27024;54.068;12.116;2024-01-30T13:40:42;16.05;;;7.78;;
583;SDS011;27024;54.068;12.116;2024-01-30T13:43:09;13.40;;;8.00;;
583;SDS011;27024;54.068;12.116;2024-01-30T13:45:36;16.63;;;7.68;;
583;SDS011;27024;54.068;12.116;2024-01-30T13:48:03;15.32;;;8.35;;
583;SDS011;27024;54.068;12.116;2024-01-30T13:50:31;12.77;;;8.23;;
583;SDS011;27024;54.068;12.116;2024-01-30T13:52:59;14.55;;;7.78;;
583;SDS011;27024;54.068;12.116;2024-01-30T13:55:27;12.25;;;7.10;;
583;SDS011;27024;54.068;12.116;2024-01-30T13:57:54;13.15;;;6.82;;
583;SDS011;27024;54.068;12.116;2024-01-30T14:00:22;13.38;;;8.05;;
583;SDS011;27024;54.068;12.116;2024-01-30T14:02:51;14.52;;;7.82;;
583;SDS011;27024;54.068;12.116;2024-01-30T14:05:21;12.93;;;7.32;;
583;SDS011;27024;54.068;12.116;2024-01-30T14:07:49;15.88;;;8.48;;
583;SDS011;27024;54.068;12.116;2024-01-30T14:10:17;12.93;;;7.82;;
583;SDS011;27024;54.068;12.116;2024-01-30T14:12:45;14.75;;;8.02;;
583;SDS011;27024;54.068;12.116;2024-01-30T14:15:12;16.17;;;8.48;;
583;SDS011;27024;54.068;12.116;2024-01-30T14:17:53;13.57;;;7.70;;
583;SDS011;27024;54.068;12.116;2024-01-30T14:20:20;14.27;;;8.45;;
583;SDS011;27024;54.068;12.116;2024-01-30T14:22:48;15.55;;;9.77;;
583;SDS011;27024;54.068;12.116;2024-01-30T14:25:15;14.18;;;7.97;;
583;SDS011;27024;54.068;12.116;2024-01-30T14:27:43;13.05;;;8.05;;
583;SDS011;27024;54.068;12.116;2024-01-30T14:30:10;15.85;;;9.00;;
583;SDS011;27024;54.068;12.116;2024-01-30T14:32:38;14.55;;;8.68;;
583;SDS011;27024;54.068;12.116;2024-01-30T14:35:07;14.50;;;8.25;;
583;SDS011;27024;54.068;12.116;2024-01-30T14:37:35;14.10;;;8.00;;
583;SDS011;27024;54.068;12.116;2024-01-30T14:40:03;15.13;;;8.32;;
583;SDS011;27024;54.068;12.116;2024-01-30T14:42:33;13.10;;;8.05;;
583;SDS011;27024;54.068;12.116;2024-01-30T14:45:03;15.25;;;8.50;;
583;SDS011;27024;54.068;12.116;2024-01-30T14:47:30;13.13;;;7.72;;
583;SDS011;27024;54.068;12.116;2024-01-30T14:49:57;16.90;;;9.02;;
583;SDS011;27024;54.068;12.116;2024-01-30T14:52:25;12.07;;;7.72;;
583;SDS011;27024;54.068;12.116;2024-01-30T14:54:52;13.52;;;7.75;;
583;SDS011;27024;54.068;12.116;2024-01-30T14:57:19;14.07;;;7.75;;
583;SDS011;27024;54.068;12.116;2024-01-30T14:59:46;14.60;;;7.88;;